Terminal Aerodrome Forecast
Issued by NWS

Home | Current Version | Previous Version | Text Only | Print | Product List | Glossary On
Versions: 1 2 3 4 5 6 7 8 9 10 11 12 13 14 15
000
FTUS46 KSEW 300530
TAFPAE
TAF
KPAE 300530Z 3006/0106 02004KT P6SM BKN090
     FM300800 04003KT P6SM SCT250
     FM301200 07002KT P6SM SCT005
      TEMPO 3013/3016 BKN005
     FM301700 33006KT P6SM SKC=

USA.gov is the U.S. government's official web portal to all federal, state and local government web resources and services.